Time;durP1;ratioP1;P1;durP2;ratioP2;P2;SDS_P1;SDS_P2;PMS_P1;PMS_P2;Temp;Humidity;BMP_temperature;BMP_pressure;BME280_temperature;BME280_humidity;BME280_pressure;Samples;Min_cycle;Max_cycle;Signal;HPM_P1;HPM_P2
2022/12/31 00:01:13;;;;;;;8.82;7.30;;;10.60;97.30;;;;;;5028192;28;20032;-68
2022/12/31 00:03:39;;;;;;;8.90;7.63;;;10.50;97.30;;;;;;5028117;28;20486;-69
2022/12/31 00:06:16;;;;;;;9.90;7.20;;;10.60;97.40;;;;;;5024053;28;20086;-68
2022/12/31 00:08:43;;;;;;;9.93;6.70;;;10.80;96.90;;;;;;5026882;28;20203;-69
2022/12/31 00:11:09;;;;;;;11.05;6.20;;;11.00;96.80;;;;;;5024905;28;20112;-68
2022/12/31 00:13:35;;;;;;;9.55;6.60;;;10.90;96.80;;;;;;5027523;28;20112;-68
2022/12/31 00:16:30;;;;;;;8.30;5.85;;;10.90;96.90;;;;;;5027999;28;20033;-70
2022/12/31 00:19:00;;;;;;;7.03;5.45;;;10.90;97.00;;;;;;5021171;28;20018;-68
2022/12/31 00:21:29;;;;;;;7.78;5.00;;;11.00;96.80;;;;;;5026337;28;20398;-69
2022/12/31 00:23:54;;;;;;;8.30;5.28;;;11.10;96.60;;;;;;5028501;28;20037;-68
2022/12/31 00:26:25;;;;;;;6.88;4.63;;;11.30;96.10;;;;;;5021698;28;20037;-68
2022/12/31 00:28:53;;;;;;;10.15;5.43;;;11.20;96.40;;;;;;5027597;28;20069;-68
2022/12/31 00:31:22;;;;;;;7.20;4.60;;;11.20;96.20;;;;;;5025869;28;20033;-68
2022/12/31 00:33:47;;;;;;;7.25;4.78;;;11.20;96.30;;;;;;5021715;28;20033;-69
2022/12/31 00:36:25;;;;;;;7.10;4.95;;;11.10;96.60;;;;;;5026161;28;20041;-70
2022/12/31 00:38:52;;;;;;;7.82;4.40;;;11.30;96.60;;;;;;5026316;28;20050;-69
2022/12/31 00:41:18;;;;;;;7.57;4.32;;;11.30;96.50;;;;;;5021918;28;20121;-68
2022/12/31 00:43:45;;;;;;;9.63;4.72;;;11.10;96.60;;;;;;5023354;28;20446;-68
2022/12/31 00:46:11;;;;;;;7.18;4.95;;;11.20;96.70;;;;;;5023433;28;20068;-68
2022/12/31 00:48:37;;;;;;;7.55;4.75;;;11.30;96.80;;;;;;5019035;28;20069;-71
2022/12/31 00:51:05;;;;;;;6.95;4.47;;;11.20;96.70;;;;;;5027261;28;20033;-68
2022/12/31 00:53:31;;;;;;;6.65;4.68;;;11.30;96.80;;;;;;5018150;28;20033;-68
2022/12/31 00:56:06;;;;;;;6.97;4.82;;;11.20;96.80;;;;;;5020815;28;20435;-69
2022/12/31 00:58:32;;;;;;;6.00;4.80;;;11.20;96.90;;;;;;5025774;28;20025;-68
2022/12/31 01:00:57;;;;;;;6.28;5.30;;;11.20;96.70;;;;;;5026247;28;20106;-72
2022/12/31 01:03:24;;;;;;;6.97;5.07;;;11.10;97.00;;;;;;5027728;28;20101;-69
2022/12/31 01:05:50;;;;;;;8.18;6.10;;;11.10;97.00;;;;;;5028796;28;20030;-68
2022/12/31 01:08:16;;;;;;;7.63;5.57;;;11.10;97.10;;;;;;5028209;28;20032;-69
2022/12/31 01:13:32;;;;;;;7.72;5.80;;;11.30;96.90;;;;;;5025555;28;20041;-68
2022/12/31 01:15:57;;;;;;;6.85;4.78;;;11.40;96.40;;;;;;5026095;28;20037;-69
2022/12/31 01:18:22;;;;;;;8.45;5.32;;;11.60;96.10;;;;;;5024739;28;20030;-68
2022/12/31 01:20:48;;;;;;;7.18;4.78;;;11.60;95.80;;;;;;5020471;28;20398;-70
2022/12/31 01:23:13;;;;;;;7.40;4.68;;;11.50;96.00;;;;;;5024468;28;20082;-68
2022/12/31 01:25:43;;;;;;;6.38;4.65;;;11.50;96.70;;;;;;5022591;28;20502;-68
2022/12/31 01:28:09;;;;;;;8.18;5.30;;;11.50;97.30;;;;;;5022658;28;20036;-68
2022/12/31 01:30:38;;;;;;;7.80;5.05;;;11.50;97.60;;;;;;5028335;28;20038;-69
2022/12/31 01:33:03;;;;;;;6.97;5.03;;;11.40;98.00;;;;;;5023470;28;20060;-69
2022/12/31 01:35:29;;;;;;;7.65;5.57;;;11.30;98.50;;;;;;5020770;28;20029;-70
2022/12/31 01:37:54;;;;;;;10.52;5.85;;;11.30;98.70;;;;;;5023560;28;20076;-68
2022/12/31 01:40:20;;;;;;;6.85;5.70;;;11.20;98.90;;;;;;5025684;28;20037;-69
2022/12/31 01:42:53;;;;;;;8.32;5.82;;;11.10;99.30;;;;;;5028269;28;20025;-69
2022/12/31 01:45:19;;;;;;;8.60;6.55;;;11.10;99.60;;;;;;5027034;28;20434;-68
2022/12/31 01:47:48;;;;;;;9.95;6.85;;;11.10;99.80;;;;;;5024645;28;20113;-69
2022/12/31 01:50:24;;;;;;;9.20;6.53;;;11.00;99.80;;;;;;5026095;28;20034;-69
2022/12/31 01:52:53;;;;;;;9.68;7.43;;;11.00;99.90;;;;;;5024456;28;20030;-69
2022/12/31 01:55:29;;;;;;;8.95;6.95;;;11.00;99.90;;;;;;5028883;28;20033;-69
2022/12/31 01:58:06;;;;;;;9.98;7.65;;;11.00;99.90;;;;;;5029808;28;20084;-69
2022/12/31 02:00:32;;;;;;;12.73;8.10;;;10.90;99.90;;;;;;5023931;28;20021;-69
2022/12/31 02:02:58;;;;;;;11.90;8.65;;;10.90;99.90;;;;;;5031762;28;20030;-70
2022/12/31 02:05:32;;;;;;;12.60;8.10;;;10.80;99.90;;;;;;5027545;28;20462;-69
2022/12/31 02:07:58;;;;;;;12.68;8.38;;;10.80;99.90;;;;;;5031547;28;20075;-69
2022/12/31 02:10:24;;;;;;;11.07;9.02;;;10.80;99.90;;;;;;5023747;28;20393;-68
2022/12/31 02:12:50;;;;;;;10.90;8.40;;;10.80;99.90;;;;;;5030084;28;20052;-71
2022/12/31 02:15:17;;;;;;;12.40;8.45;;;10.80;99.90;;;;;;5028535;28;20086;-69
2022/12/31 02:17:57;;;;;;;13.32;9.02;;;10.80;99.90;;;;;;5028143;28;21865;-70
2022/12/31 02:20:32;;;;;;;13.38;8.98;;;10.80;99.90;;;;;;5024848;28;20053;-69
2022/12/31 02:23:15;;;;;;;13.50;9.10;;;10.90;99.90;;;;;;5026679;28;20053;-69
2022/12/31 02:26:09;;;;;;;12.82;9.43;;;10.90;99.90;;;;;;5025477;28;20022;-72
2022/12/31 02:28:59;;;;;;;14.60;8.50;;;10.90;99.90;;;;;;5025969;28;20029;-69
2022/12/31 02:31:46;;;;;;;11.05;8.13;;;11.00;99.90;;;;;;5029121;28;20517;-69
2022/12/31 02:34:28;;;;;;;12.45;9.45;;;11.00;99.90;;;;;;5025230;28;20043;-69
2022/12/31 02:36:56;;;;;;;12.60;8.88;;;10.90;99.90;;;;;;5030676;28;20029;-69
2022/12/31 02:39:22;;;;;;;13.02;8.70;;;10.90;99.90;;;;;;5025829;28;20144;-69
2022/12/31 02:41:49;;;;;;;12.60;9.70;;;10.90;99.90;;;;;;5028314;28;20548;-69
2022/12/31 02:44:24;;;;;;;13.57;10.25;;;11.00;99.90;;;;;;5027760;28;22876;-69
2022/12/31 02:47:07;;;;;;;13.73;9.80;;;11.00;99.90;;;;;;5028751;28;20033;-69
2022/12/31 02:49:45;;;;;;;13.27;9.63;;;11.00;99.90;;;;;;5029428;28;20033;-68
2022/12/31 02:52:22;;;;;;;15.65;9.95;;;11.00;99.90;;;;;;5028296;28;20072;-69
2022/12/31 02:55:10;;;;;;;15.40;11.00;;;11.00;99.90;;;;;;5027906;28;20898;-69
2022/12/31 02:57:50;;;;;;;16.60;10.35;;;11.00;99.90;;;;;;5027181;28;20393;-72
2022/12/31 03:03:01;;;;;;;15.52;10.95;;;11.10;99.90;;;;;;5027474;28;20109;-70
2022/12/31 03:05:31;;;;;;;13.80;10.68;;;11.10;99.90;;;;;;5027284;28;20029;-69
2022/12/31 03:07:56;;;;;;;14.95;11.02;;;11.10;99.90;;;;;;5038696;28;20025;-69
2022/12/31 03:10:22;;;;;;;15.27;10.52;;;11.10;99.90;;;;;;5020060;28;20425;-69
2022/12/31 03:12:48;;;;;;;16.95;11.38;;;11.10;99.90;;;;;;5028801;28;20033;-69
2022/12/31 03:15:19;;;;;;;15.55;10.90;;;11.10;99.90;;;;;;5018126;28;20222;-69
2022/12/31 03:17:52;;;;;;;15.43;11.32;;;11.10;99.90;;;;;;5027135;28;20040;-70
2022/12/31 03:23:05;;;;;;;16.23;10.90;;;11.10;99.90;;;;;;5026252;28;20060;-68
2022/12/31 03:28:02;;;;;;;14.75;10.57;;;11.10;99.90;;;;;;5027876;28;20037;-68
2022/12/31 03:30:29;;;;;;;15.65;11.63;;;11.20;99.90;;;;;;5025114;28;20040;-68
2022/12/31 03:32:55;;;;;;;15.30;11.13;;;11.20;99.90;;;;;;5030081;28;20037;-69
2022/12/31 03:35:24;;;;;;;15.05;10.63;;;11.30;99.90;;;;;;5022853;28;20041;-68
2022/12/31 03:37:50;;;;;;;15.68;11.35;;;11.20;99.90;;;;;;5021168;28;20116;-68
2022/12/31 03:40:17;;;;;;;15.45;9.82;;;11.30;99.90;;;;;;5025310;28;20076;-69
2022/12/31 03:42:43;;;;;;;16.35;10.70;;;11.30;99.90;;;;;;5031595;28;20511;-70
2022/12/31 03:45:10;;;;;;;13.30;9.75;;;11.30;99.90;;;;;;5029748;28;20109;-69
2022/12/31 03:47:35;;;;;;;14.02;9.77;;;11.30;99.90;;;;;;5028323;28;20037;-70
2022/12/31 03:50:03;;;;;;;14.55;9.57;;;11.30;99.90;;;;;;5027097;28;20037;-69
2022/12/31 03:52:28;;;;;;;16.15;9.70;;;11.30;99.90;;;;;;5022824;28;20029;-68
2022/12/31 03:54:53;;;;;;;13.35;8.48;;;11.40;99.90;;;;;;5028319;28;20052;-70
2022/12/31 03:57:19;;;;;;;14.02;8.55;;;11.20;99.90;;;;;;5029263;28;20042;-69
2022/12/31 03:59:44;;;;;;;12.88;9.52;;;11.30;99.90;;;;;;5030280;28;20083;-69
2022/12/31 04:02:10;;;;;;;12.18;8.90;;;11.20;99.90;;;;;;5025246;28;20038;-69
2022/12/31 04:04:35;;;;;;;12.68;9.07;;;11.20;99.90;;;;;;5023605;28;20034;-69
2022/12/31 04:07:01;;;;;;;12.70;9.32;;;11.30;99.90;;;;;;5028081;28;20040;-69
2022/12/31 04:09:26;;;;;;;13.10;9.38;;;11.30;99.90;;;;;;5029745;28;20026;-69
2022/12/31 04:11:52;;;;;;;14.02;9.57;;;11.30;99.90;;;;;;5026584;28;20161;-69
2022/12/31 04:14:17;;;;;;;14.05;8.40;;;11.30;99.90;;;;;;5022514;28;20065;-69
2022/12/31 04:16:43;;;;;;;12.63;9.18;;;11.20;99.90;;;;;;5026598;28;20041;-69
2022/12/31 04:19:09;;;;;;;11.73;8.68;;;11.20;99.90;;;;;;5024132;28;20362;-69
2022/12/31 04:21:35;;;;;;;9.85;7.47;;;11.10;99.90;;;;;;5024545;28;20057;-69
2022/12/31 04:24:01;;;;;;;12.07;7.32;;;11.10;99.90;;;;;;5023264;28;21589;-69
2022/12/31 04:26:27;;;;;;;11.63;7.15;;;11.10;99.90;;;;;;5029180;28;20064;-69
2022/12/31 04:28:52;;;;;;;10.52;7.57;;;11.00;99.90;;;;;;5024305;28;20041;-68
2022/12/31 04:31:17;;;;;;;9.32;6.53;;;11.10;99.90;;;;;;5025249;28;20382;-69
2022/12/31 04:33:43;;;;;;;8.85;6.20;;;11.10;99.90;;;;;;5022111;28;20045;-71
2022/12/31 04:36:09;;;;;;;7.95;5.63;;;11.00;99.90;;;;;;5027820;28;20044;-68
2022/12/31 04:38:34;;;;;;;10.70;5.95;;;11.10;99.90;;;;;;5029231;28;20033;-72
2022/12/31 04:41:15;;;;;;;8.32;5.75;;;11.00;99.90;;;;;;5028053;28;20080;-69
2022/12/31 04:43:52;;;;;;;9.27;5.95;;;11.10;99.90;;;;;;5027177;28;20037;-70
2022/12/31 04:46:23;;;;;;;9.10;5.65;;;11.00;99.90;;;;;;5020236;28;20124;-69
2022/12/31 04:48:49;;;;;;;8.40;5.43;;;11.00;99.90;;;;;;5024557;28;20076;-69
2022/12/31 04:51:14;;;;;;;7.55;4.60;;;11.00;99.90;;;;;;5029975;28;20493;-69
2022/12/31 04:53:40;;;;;;;11.45;5.18;;;11.00;99.90;;;;;;5027761;28;20038;-69
2022/12/31 04:56:06;;;;;;;10.77;5.50;;;10.90;99.90;;;;;;5027375;28;20033;-70
2022/12/31 04:58:32;;;;;;;8.88;4.55;;;10.90;99.90;;;;;;5028559;28;20042;-69
2022/12/31 05:00:58;;;;;;;7.03;3.92;;;10.90;99.90;;;;;;5025086;28;20087;-69
2022/12/31 05:03:25;;;;;;;5.72;3.80;;;10.80;99.90;;;;;;5021797;28;20033;-69
2022/12/31 05:05:51;;;;;;;5.93;3.20;;;10.80;99.90;;;;;;5026353;28;20022;-70
2022/12/31 05:08:17;;;;;;;3.53;2.50;;;10.70;99.90;;;;;;5028709;28;20087;-71
2022/12/31 05:10:45;;;;;;;3.55;2.00;;;10.70;99.90;;;;;;5030231;28;20041;-69
2022/12/31 05:13:11;;;;;;;5.18;2.08;;;10.70;99.90;;;;;;5030542;28;20466;-69
2022/12/31 05:15:37;;;;;;;2.47;1.60;;;10.60;99.90;;;;;;5028284;28;20481;-69
2022/12/31 05:18:03;;;;;;;2.80;1.73;;;10.60;99.90;;;;;;5030716;28;20033;-70
2022/12/31 05:20:29;;;;;;;2.92;1.75;;;10.50;99.90;;;;;;5029888;28;20030;-71
2022/12/31 05:22:54;;;;;;;3.08;1.85;;;10.60;99.90;;;;;;5028981;28;20144;-69
2022/12/31 05:25:20;;;;;;;2.78;1.80;;;10.50;99.90;;;;;;5029253;28;20096;-69
2022/12/31 05:27:45;;;;;;;3.78;2.10;;;10.50;99.90;;;;;;5025819;28;20037;-69
2022/12/31 05:30:11;;;;;;;4.05;2.17;;;10.40;99.90;;;;;;5029003;28;20044;-70
2022/12/31 05:32:37;;;;;;;2.80;1.55;;;10.40;99.90;;;;;;5016992;28;20052;-70
2022/12/31 05:35:03;;;;;;;2.97;2.10;;;10.40;99.90;;;;;;5026781;28;20080;-71
2022/12/31 05:37:29;;;;;;;2.95;1.70;;;10.40;99.90;;;;;;5031779;28;20024;-72
2022/12/31 05:39:55;;;;;;;2.13;1.38;;;10.30;99.90;;;;;;5030651;28;20430;-70
2022/12/31 05:42:21;;;;;;;2.70;1.60;;;10.30;99.90;;;;;;5028372;28;20080;-70
2022/12/31 05:44:47;;;;;;;5.05;1.52;;;10.30;99.90;;;;;;5031608;28;20068;-70
2022/12/31 05:47:12;;;;;;;2.53;1.40;;;10.30;99.90;;;;;;5032038;28;20148;-70
2022/12/31 05:49:38;;;;;;;2.95;1.42;;;10.20;99.90;;;;;;5031327;28;20111;-70
2022/12/31 05:52:03;;;;;;;2.80;1.08;;;10.10;99.90;;;;;;5031050;28;20051;-70
2022/12/31 05:54:29;;;;;;;2.13;1.25;;;10.10;99.90;;;;;;5031110;28;20359;-70
2022/12/31 05:56:54;;;;;;;1.50;1.10;;;10.10;99.90;;;;;;5028442;28;20416;-71
2022/12/31 05:59:21;;;;;;;2.55;1.13;;;10.10;99.90;;;;;;5032141;28;20033;-70
2022/12/31 06:01:46;;;;;;;1.40;0.80;;;10.10;99.90;;;;;;5032138;28;20064;-70
2022/12/31 06:04:11;;;;;;;1.65;1.00;;;10.10;99.90;;;;;;5030977;28;20450;-71
2022/12/31 06:06:37;;;;;;;2.63;1.13;;;10.10;99.90;;;;;;5024962;28;20029;-71
2022/12/31 06:09:03;;;;;;;2.47;1.40;;;10.10;99.90;;;;;;5028866;28;20057;-69
2022/12/31 06:11:28;;;;;;;1.35;0.88;;;10.00;99.90;;;;;;5028586;28;20482;-70
2022/12/31 06:13:54;;;;;;;1.58;0.70;;;10.00;99.90;;;;;;5031623;28;20061;-70
2022/12/31 06:16:19;;;;;;;2.13;0.85;;;10.00;99.90;;;;;;5030218;28;20056;-70
2022/12/31 06:18:49;;;;;;;1.77;0.85;;;10.00;99.90;;;;;;5031349;28;20354;-70
2022/12/31 06:21:14;;;;;;;1.30;0.80;;;10.00;99.90;;;;;;5029848;28;20033;-70
2022/12/31 06:23:40;;;;;;;1.00;0.75;;;10.00;99.90;;;;;;5025622;28;20021;-70
2022/12/31 06:26:06;;;;;;;0.90;0.65;;;10.00;99.90;;;;;;5031002;28;20108;-70
2022/12/31 06:28:32;;;;;;;1.02;0.70;;;9.90;99.90;;;;;;5025970;28;20033;-70
2022/12/31 06:31:03;;;;;;;1.23;0.90;;;9.90;99.90;;;;;;5030626;28;20037;-70
2022/12/31 06:33:29;;;;;;;1.13;0.93;;;9.90;99.90;;;;;;5024551;28;20084;-69
2022/12/31 06:35:56;;;;;;;1.88;0.98;;;10.00;99.90;;;;;;5030425;28;20441;-69
2022/12/31 06:38:22;;;;;;;2.20;1.30;;;10.00;99.90;;;;;;5022829;28;20026;-69
2022/12/31 06:40:47;;;;;;;1.85;1.40;;;10.00;99.90;;;;;;5027679;28;20091;-70
2022/12/31 06:43:13;;;;;;;1.60;1.25;;;10.00;99.90;;;;;;5032444;28;20462;-70
2022/12/31 06:45:38;;;;;;;2.92;1.60;;;10.00;99.90;;;;;;5029653;28;20087;-69
2022/12/31 06:48:05;;;;;;;3.53;1.45;;;10.00;99.90;;;;;;5029946;28;20045;-69
2022/12/31 06:50:30;;;;;;;3.28;1.60;;;10.00;99.90;;;;;;5025209;28;20537;-69
2022/12/31 06:52:56;;;;;;;3.30;1.60;;;10.00;99.90;;;;;;5025577;28;20116;-69
2022/12/31 06:55:21;;;;;;;3.33;1.90;;;10.00;99.90;;;;;;5022088;28;20033;-69
2022/12/31 06:57:47;;;;;;;2.72;1.95;;;10.00;99.90;;;;;;5022733;28;20091;-69
2022/12/31 07:00:13;;;;;;;4.20;2.10;;;10.00;99.90;;;;;;5017738;28;20033;-71
2022/12/31 07:02:52;;;;;;;3.17;2.13;;;10.00;99.90;;;;;;5024966;28;20030;-70
2022/12/31 07:05:27;;;;;;;3.83;2.00;;;10.00;99.90;;;;;;5024114;28;20051;-69
2022/12/31 07:08:16;;;;;;;3.25;2.13;;;10.00;99.90;;;;;;5024236;28;20049;-71
2022/12/31 07:10:58;;;;;;;5.43;2.30;;;10.00;99.90;;;;;;5021665;28;20037;-70
2022/12/31 07:13:24;;;;;;;4.60;2.38;;;10.00;99.90;;;;;;5029910;28;20033;-70
2022/12/31 07:16:17;;;;;;;4.80;2.35;;;10.00;99.90;;;;;;5025233;28;20029;-69
2022/12/31 07:18:53;;;;;;;4.25;2.00;;;10.00;99.90;;;;;;5028718;28;20064;-70
2022/12/31 07:21:31;;;;;;;3.97;2.30;;;10.10;99.90;;;;;;5024467;28;20495;-69
2022/12/31 07:23:56;;;;;;;5.88;2.40;;;10.10;99.90;;;;;;5020149;28;20465;-69
2022/12/31 07:26:46;;;;;;;5.07;2.22;;;10.00;99.90;;;;;;5030971;28;20125;-69
2022/12/31 07:29:30;;;;;;;4.72;2.17;;;10.00;99.90;;;;;;5028682;28;20025;-70
2022/12/31 07:31:56;;;;;;;4.00;2.35;;;10.00;99.90;;;;;;5026383;28;20056;-69
2022/12/31 07:34:50;;;;;;;7.53;2.45;;;10.00;99.90;;;;;;5030372;28;20013;-69
2022/12/31 07:37:47;;;;;;;4.68;2.58;;;10.00;99.90;;;;;;5029846;28;20029;-69
2022/12/31 07:40:17;;;;;;;5.10;2.60;;;10.10;99.90;;;;;;5032397;28;20041;-69
2022/12/31 07:43:00;;;;;;;5.60;3.20;;;10.10;99.90;;;;;;5025798;28;20037;-71
2022/12/31 07:45:46;;;;;;;5.40;3.15;;;10.10;99.90;;;;;;5029479;28;20083;-69
2022/12/31 07:48:27;;;;;;;4.72;3.22;;;10.10;99.90;;;;;;5031052;28;20395;-70
2022/12/31 07:50:54;;;;;;;5.93;3.60;;;10.20;99.90;;;;;;5031163;28;20044;-69
2022/12/31 07:53:21;;;;;;;6.60;3.85;;;10.10;99.90;;;;;;5028539;28;20096;-70
2022/12/31 07:55:50;;;;;;;8.93;4.00;;;10.10;99.90;;;;;;5025399;28;20037;-69
2022/12/31 07:58:21;;;;;;;7.57;3.92;;;10.10;99.90;;;;;;5028715;28;20091;-70
2022/12/31 08:00:47;;;;;;;5.85;3.60;;;10.10;99.90;;;;;;5029049;28;20022;-70
2022/12/31 08:03:40;;;;;;;6.90;4.07;;;10.10;99.90;;;;;;5031551;28;20029;-70
2022/12/31 08:06:24;;;;;;;7.35;4.05;;;10.10;99.90;;;;;;5026046;28;20804;-69
2022/12/31 08:08:58;;;;;;;8.13;4.65;;;10.20;99.90;;;;;;5024062;28;20040;-69
2022/12/31 08:11:34;;;;;;;8.20;4.45;;;10.20;99.90;;;;;;5028896;28;20068;-69
2022/12/31 08:14:01;;;;;;;8.95;3.92;;;10.20;99.90;;;;;;5019322;28;20030;-69
2022/12/31 08:16:27;;;;;;;8.20;3.88;;;10.20;99.90;;;;;;5030745;28;20031;-70
2022/12/31 08:18:53;;;;;;;6.70;3.85;;;10.20;99.90;;;;;;5030077;28;20116;-69
2022/12/31 08:21:36;;;;;;;7.03;4.03;;;10.20;99.90;;;;;;5030141;28;20456;-69
2022/12/31 08:24:29;;;;;;;7.63;4.05;;;10.30;99.90;;;;;;5026818;28;20022;-69
2022/12/31 08:27:21;;;;;;;6.38;4.03;;;10.30;99.90;;;;;;5024777;28;20041;-70
2022/12/31 08:30:07;;;;;;;7.25;4.70;;;10.30;99.90;;;;;;5017172;28;20052;-70
2022/12/31 08:32:45;;;;;;;9.13;4.03;;;10.30;99.90;;;;;;5019732;28;20041;-69
2022/12/31 08:35:52;;;;;;;6.68;3.97;;;10.30;99.90;;;;;;5025795;28;20041;-70
2022/12/31 08:38:18;;;;;;;8.40;4.10;;;10.40;99.90;;;;;;5018142;28;20046;-70
2022/12/31 08:41:00;;;;;;;6.35;3.92;;;10.40;99.90;;;;;;5031560;28;20393;-69
2022/12/31 08:44:04;;;;;;;7.28;3.60;;;10.40;99.90;;;;;;5026378;28;20527;-70
2022/12/31 08:46:57;;;;;;;6.95;4.10;;;10.40;99.90;;;;;;5027483;28;20477;-69
2022/12/31 08:49:26;;;;;;;5.78;3.63;;;10.40;99.90;;;;;;5025308;28;20049;-70
2022/12/31 08:51:52;;;;;;;6.25;3.78;;;10.40;99.90;;;;;;5028921;28;20543;-69
2022/12/31 08:54:17;;;;;;;7.53;4.55;;;10.50;99.90;;;;;;5026556;28;20071;-70
2022/12/31 08:57:17;;;;;;;7.93;4.47;;;10.40;99.90;;;;;;5026430;28;20160;-71
2022/12/31 09:00:06;;;;;;;6.78;3.65;;;10.40;99.90;;;;;;5027475;28;20037;-70
2022/12/31 09:03:11;;;;;;;7.80;3.78;;;10.50;99.90;;;;;;5029271;28;20061;-70
2022/12/31 09:06:02;;;;;;;6.85;3.72;;;10.50;99.90;;;;;;5030019;28;20053;-70
2022/12/31 09:08:52;;;;;;;6.60;3.50;;;10.50;99.90;;;;;;5022938;28;20030;-70
2022/12/31 09:11:32;;;;;;;7.03;3.78;;;10.40;99.90;;;;;;5026777;28;20036;-70
2022/12/31 09:14:24;;;;;;;5.70;3.20;;;10.50;99.90;;;;;;5027680;28;20057;-70
2022/12/31 09:17:11;;;;;;;5.82;3.63;;;10.50;99.90;;;;;;5029110;28;20361;-69
2022/12/31 09:19:36;;;;;;;5.47;3.38;;;10.50;99.90;;;;;;5027680;28;20033;-69
2022/12/31 09:22:02;;;;;;;6.00;3.45;;;10.50;99.90;;;;;;5028284;28;20068;-70
2022/12/31 09:24:28;;;;;;;4.35;2.85;;;10.60;99.90;;;;;;5024006;28;20033;-70
2022/12/31 09:27:08;;;;;;;5.63;2.92;;;10.60;99.90;;;;;;5022839;28;20437;-70
2022/12/31 09:30:00;;;;;;;6.45;2.58;;;10.60;99.90;;;;;;5028965;28;20485;-71
2022/12/31 09:32:53;;;;;;;3.92;2.40;;;10.60;99.90;;;;;;5029520;28;20045;-71
2022/12/31 09:35:28;;;;;;;3.67;2.30;;;10.60;99.90;;;;;;5020864;28;20029;-68
2022/12/31 09:38:05;;;;;;;4.82;2.30;;;10.60;99.90;;;;;;5025327;28;20061;-71
2022/12/31 09:40:49;;;;;;;3.58;2.25;;;10.60;99.90;;;;;;5020880;28;20117;-70
2022/12/31 09:43:31;;;;;;;3.33;2.20;;;10.70;99.90;;;;;;5021456;28;20033;-70
2022/12/31 09:46:17;;;;;;;4.63;2.10;;;10.70;99.90;;;;;;5027754;28;20033;-70
2022/12/31 09:49:19;;;;;;;3.10;1.67;;;10.70;99.90;;;;;;5026478;28;20045;-70
2022/12/31 09:52:27;;;;;;;3.63;1.83;;;10.80;99.90;;;;;;5021548;28;20034;-69
2022/12/31 09:55:14;;;;;;;4.72;1.75;;;10.80;99.90;;;;;;5022855;28;20458;-69
2022/12/31 09:57:59;;;;;;;3.38;1.80;;;10.80;99.90;;;;;;5027606;28;20474;-69
2022/12/31 10:00:35;;;;;;;2.95;1.80;;;10.90;99.90;;;;;;5024552;28;20026;-70
2022/12/31 10:03:06;;;;;;;3.47;1.90;;;10.90;99.90;;;;;;5027619;28;20045;-70
2022/12/31 10:05:48;;;;;;;2.78;1.52;;;11.00;99.90;;;;;;5026536;28;20083;-70
2022/12/31 10:08:43;;;;;;;4.15;1.98;;;11.00;99.90;;;;;;5025531;28;20053;-70
2022/12/31 10:11:18;;;;;;;4.05;1.80;;;11.10;99.90;;;;;;5024714;28;20061;-70
2022/12/31 10:14:02;;;;;;;2.70;1.95;;;11.10;99.90;;;;;;5026118;28;20897;-70
2022/12/31 10:17:19;;;;;;;3.38;1.65;;;11.10;99.90;;;;;;5026234;28;20030;-70
2022/12/31 10:20:15;;;;;;;3.63;2.10;;;11.10;99.90;;;;;;5016901;28;21297;-70
2022/12/31 10:23:05;;;;;;;2.67;1.80;;;11.20;99.90;;;;;;5029539;28;20470;-70
2022/12/31 10:25:39;;;;;;;2.73;2.00;;;11.30;99.90;;;;;;5029698;28;20121;-70
2022/12/31 10:28:39;;;;;;;2.15;1.60;;;11.30;99.90;;;;;;5032386;28;20068;-71
2022/12/31 10:31:32;;;;;;;4.30;1.88;;;11.30;99.90;;;;;;5021725;28;20615;-70
2022/12/31 10:34:29;;;;;;;2.42;1.55;;;11.40;99.90;;;;;;5026945;28;20040;-71
2022/12/31 10:37:01;;;;;;;2.45;1.67;;;11.50;99.90;;;;;;5025957;28;20546;-70
2022/12/31 10:39:49;;;;;;;1.63;1.33;;;11.50;99.90;;;;;;5029371;28;20040;-72
2022/12/31 10:42:58;;;;;;;2.33;1.35;;;11.50;99.90;;;;;;5021399;28;20029;-74
2022/12/31 10:45:57;;;;;;;2.42;1.20;;;11.60;99.90;;;;;;5030127;28;20041;-71
2022/12/31 10:48:57;;;;;;;1.42;1.15;;;11.60;99.90;;;;;;5022162;28;20037;-72
2022/12/31 10:51:53;;;;;;;2.53;1.27;;;11.70;99.90;;;;;;5018490;28;20045;-70
2022/12/31 10:54:28;;;;;;;3.67;1.13;;;11.80;99.90;;;;;;5026663;28;20108;-69
2022/12/31 10:57:11;;;;;;;1.70;0.93;;;11.80;99.90;;;;;;5031590;28;20736;-70
2022/12/31 11:00:02;;;;;;;1.30;0.90;;;11.80;99.90;;;;;;5029333;28;20253;-70
2022/12/31 11:02:27;;;;;;;0.75;0.60;;;11.90;99.90;;;;;;5021646;28;20022;-70
2022/12/31 11:05:10;;;;;;;1.08;0.70;;;12.00;99.90;;;;;;5021488;28;20390;-69
2022/12/31 11:07:59;;;;;;;1.75;0.70;;;12.00;99.90;;;;;;5028470;28;20034;-69
2022/12/31 11:11:09;;;;;;;0.80;0.52;;;12.10;99.90;;;;;;5029082;28;20037;-69
2022/12/31 11:13:53;;;;;;;1.02;0.50;;;12.10;99.90;;;;;;5025316;28;20124;-69
2022/12/31 11:16:35;;;;;;;4.47;0.47;;;12.20;99.90;;;;;;5032429;28;20041;-69
2022/12/31 11:19:03;;;;;;;0.75;0.50;;;12.30;99.90;;;;;;5027396;28;20041;-69
2022/12/31 11:22:11;;;;;;;2.00;0.43;;;12.30;99.90;;;;;;5029702;28;20037;-70
2022/12/31 11:25:11;;;;;;;0.73;0.52;;;12.40;99.90;;;;;;5025687;28;20090;-72
2022/12/31 11:28:04;;;;;;;0.50;0.50;;;12.40;99.90;;;;;;5025904;28;20026;-70
2022/12/31 11:31:00;;;;;;;1.08;0.50;;;12.50;99.90;;;;;;5025518;28;20095;-69
2022/12/31 11:33:28;;;;;;;1.40;0.50;;;12.50;99.90;;;;;;5023803;28;20593;-70
2022/12/31 11:36:19;;;;;;;0.52;0.50;;;12.50;99.90;;;;;;5021132;28;20045;-69
2022/12/31 11:38:58;;;;;;;1.57;0.80;;;12.50;99.90;;;;;;5027923;28;20041;-71
2022/12/31 11:41:45;;;;;;;1.25;0.63;;;12.50;99.90;;;;;;5023066;28;20436;-70
2022/12/31 11:44:41;;;;;;;1.73;0.40;;;12.50;99.90;;;;;;5026648;28;20560;-70
2022/12/31 11:47:44;;;;;;;0.50;0.50;;;12.50;99.90;;;;;;5027973;28;20073;-71
2022/12/31 11:50:28;;;;;;;1.20;0.65;;;12.50;99.90;;;;;;5016511;28;20022;-71
2022/12/31 11:53:00;;;;;;;0.40;0.40;;;12.60;99.80;;;;;;5013181;28;20038;-70
2022/12/31 11:56:01;;;;;;;0.50;0.50;;;12.60;99.50;;;;;;5034374;28;20037;-70
2022/12/31 11:58:28;;;;;;;0.50;0.50;;;12.70;99.50;;;;;;5027845;28;20025;-71
2022/12/31 12:01:20;;;;;;;0.93;0.50;;;12.80;99.40;;;;;;5023405;28;20124;-71
2022/12/31 12:03:47;;;;;;;1.10;0.50;;;12.80;99.40;;;;;;5017652;28;20041;-70
2022/12/31 12:06:18;;;;;;;1.55;0.60;;;12.80;99.30;;;;;;5028754;28;20029;-70
2022/12/31 12:08:45;;;;;;;0.50;0.50;;;12.80;99.20;;;;;;5026232;28;20179;-70
2022/12/31 12:11:22;;;;;;;0.73;0.40;;;12.80;99.30;;;;;;5016002;28;20397;-71
2022/12/31 12:13:48;;;;;;;1.35;0.38;;;12.90;99.10;;;;;;5021324;28;20025;-70
2022/12/31 12:16:14;;;;;;;1.85;0.90;;;12.90;99.40;;;;;;5024841;28;20042;-69
2022/12/31 12:18:50;;;;;;;0.63;0.47;;;12.80;99.20;;;;;;5023234;28;20029;-69
2022/12/31 12:21:22;;;;;;;1.20;0.30;;;12.80;99.30;;;;;;5020690;28;20030;-74
2022/12/31 12:23:56;;;;;;;2.65;0.40;;;12.80;99.10;;;;;;5020505;28;20026;-70
2022/12/31 12:26:40;;;;;;;1.27;0.40;;;12.80;99.00;;;;;;5022140;28;20040;-69
2022/12/31 12:29:10;;;;;;;0.70;0.57;;;12.90;98.90;;;;;;5028323;28;20794;-68
2022/12/31 12:31:36;;;;;;;1.35;0.45;;;12.90;99.00;;;;;;5028363;28;20037;-69
2022/12/31 12:34:03;;;;;;;1.48;0.40;;;12.90;98.90;;;;;;5023981;28;20060;-69
2022/12/31 12:36:30;;;;;;;0.30;0.20;;;13.00;98.70;;;;;;5028559;28;20406;-71
2022/12/31 12:39:04;;;;;;;0.82;0.35;;;12.90;98.60;;;;;;5022639;28;20032;-70
2022/12/31 12:41:30;;;;;;;0.75;0.30;;;13.00;98.50;;;;;;5020765;28;20421;-70
2022/12/31 12:44:07;;;;;;;0.70;0.50;;;13.00;98.60;;;;;;5019767;28;20041;-70
2022/12/31 12:46:42;;;;;;;2.33;0.60;;;12.90;98.60;;;;;;5025509;28;20068;-70
2022/12/31 12:49:28;;;;;;;0.65;0.40;;;12.80;98.90;;;;;;5021844;28;20033;-69
2022/12/31 12:52:20;;;;;;;1.55;0.43;;;12.90;99.20;;;;;;5025715;28;20052;-69
2022/12/31 12:55:30;;;;;;;1.23;0.63;;;12.80;99.30;;;;;;5017622;28;20056;-71
2022/12/31 12:58:04;;;;;;;2.72;0.80;;;12.90;99.50;;;;;;5028869;28;20473;-70
2022/12/31 13:00:40;;;;;;;1.08;0.47;;;12.80;99.70;;;;;;5019031;28;20037;-70
2022/12/31 13:03:40;;;;;;;1.23;0.70;;;12.80;99.90;;;;;;5022638;28;20033;-71
2022/12/31 13:06:15;;;;;;;2.55;0.70;;;12.80;99.90;;;;;;5006607;28;20049;-71
2022/12/31 13:09:01;;;;;;;0.75;0.60;;;12.80;99.90;;;;;;5020876;28;20042;-72
2022/12/31 13:11:30;;;;;;;0.50;0.50;;;12.80;99.90;;;;;;5021141;28;20037;-75
2022/12/31 13:14:19;;;;;;;0.60;0.47;;;12.80;99.90;;;;;;5011022;28;20041;-73
2022/12/31 13:17:15;;;;;;;0.80;0.50;;;12.80;99.90;;;;;;5023451;28;20413;-72
2022/12/31 13:19:51;;;;;;;0.93;0.55;;;12.80;99.90;;;;;;5015272;28;20026;-73
2022/12/31 13:22:32;;;;;;;1.42;0.60;;;12.80;99.90;;;;;;5017619;28;20053;-72
2022/12/31 13:25:32;;;;;;;2.58;0.73;;;12.80;99.90;;;;;;5024127;28;20030;-73
2022/12/31 13:28:02;;;;;;;2.85;1.10;;;12.80;99.90;;;;;;5022933;28;20120;-75
2022/12/31 13:30:34;;;;;;;3.38;1.20;;;12.80;99.90;;;;;;5021374;28;20397;-71
2022/12/31 13:33:02;;;;;;;3.33;1.33;;;12.80;99.90;;;;;;5027220;28;20053;-72
2022/12/31 13:35:44;;;;;;;3.55;1.17;;;12.70;99.90;;;;;;5027421;28;20390;-72